createdAt,value
2023-03-02T00:02:56.864Z,14.71
2023-03-02T00:08:00.052Z,14.67
2023-03-02T00:13:02.513Z,14.68
2023-03-02T00:18:04.798Z,14.70
2023-03-02T00:23:06.907Z,14.65
2023-03-02T00:28:09.348Z,14.55
2023-03-02T00:33:11.523Z,14.22
2023-03-02T00:38:13.884Z,14.00
2023-03-02T00:43:17.018Z,14.11
2023-03-02T00:48:19.210Z,14.39
2023-03-02T00:53:21.278Z,14.47
2023-03-02T00:58:23.581Z,14.01
2023-03-02T01:03:26.100Z,13.78
2023-03-02T01:08:28.528Z,13.46
2023-03-02T01:13:30.583Z,13.52
2023-03-02T01:18:33.391Z,13.98
2023-03-02T01:23:35.903Z,14.15
2023-03-02T01:28:38.183Z,14.17
2023-03-02T01:33:40.321Z,14.42
2023-03-02T01:38:42.805Z,14.55
2023-03-02T01:43:44.968Z,14.54
2023-03-02T01:48:57.361Z,14.65
2023-03-02T01:54:05.138Z,14.69
2023-03-02T01:59:12.732Z,14.68
2023-03-02T02:04:15.322Z,14.81
2023-03-02T02:09:20.391Z,14.68
2023-03-02T02:14:22.956Z,14.82
2023-03-02T02:19:25.119Z,14.74
2023-03-02T02:24:40.200Z,14.57
2023-03-02T02:29:50.144Z,14.65
2023-03-02T02:34:52.101Z,14.60
2023-03-02T02:39:55.201Z,14.70
2023-03-02T02:45:02.229Z,14.85
2023-03-02T02:50:04.713Z,15.07
2023-03-02T02:55:07.335Z,15.14
2023-03-02T03:00:19.854Z,15.32
2023-03-02T03:05:22.177Z,15.40
2023-03-02T03:10:35.360Z,15.34
2023-03-02T03:15:37.809Z,15.36
2023-03-02T03:20:42.449Z,15.13
2023-03-02T03:25:44.621Z,15.10
2023-03-02T03:30:46.851Z,15.13
2023-03-02T03:35:49.225Z,15.16
2023-03-02T03:40:51.414Z,15.13
2023-03-02T03:45:53.623Z,14.87
2023-03-02T03:50:55.831Z,14.91
2023-03-02T03:55:58.095Z,14.92
2023-03-02T04:01:01.100Z,14.90
2023-03-02T04:06:03.290Z,14.80
2023-03-02T04:11:05.540Z,14.63
2023-03-02T04:16:07.975Z,14.68
2023-03-02T04:21:10.226Z,14.64
2023-03-02T04:26:12.430Z,14.55
2023-03-02T04:31:14.774Z,14.65
2023-03-02T04:36:17.063Z,14.71
2023-03-02T04:41:19.827Z,14.52
2023-03-02T04:46:24.425Z,14.53
2023-03-02T04:51:32.367Z,14.59
2023-03-02T04:56:35.187Z,14.61
2023-03-02T05:01:37.446Z,14.63
2023-03-02T05:06:40.003Z,14.42
2023-03-02T05:11:42.302Z,14.43
2023-03-02T05:16:44.505Z,14.47
2023-03-02T05:21:46.998Z,14.58
2023-03-02T05:26:49.185Z,14.34
2023-03-02T05:31:51.542Z,14.43
2023-03-02T05:36:53.943Z,14.43
2023-03-02T05:41:56.221Z,14.49
2023-03-02T05:46:58.452Z,14.44
2023-03-02T05:52:00.695Z,14.60
2023-03-02T05:57:03.002Z,14.69
2023-03-02T06:02:05.198Z,14.70
2023-03-02T06:07:07.396Z,14.72
2023-03-02T06:12:09.881Z,14.74
2023-03-02T06:17:12.000Z,14.68
2023-03-02T06:22:14.272Z,14.80
2023-03-02T06:27:16.444Z,14.66
2023-03-02T06:32:18.772Z,14.73
2023-03-02T06:37:21.082Z,14.92
2023-03-02T06:42:24.613Z,14.86
2023-03-02T06:47:26.801Z,14.85
2023-03-02T06:52:29.190Z,14.91
2023-03-02T06:57:34.365Z,14.90
2023-03-02T07:02:37.827Z,14.97
2023-03-02T07:07:40.473Z,14.93
2023-03-02T07:12:43.076Z,14.85
2023-03-02T07:17:46.092Z,14.82
2023-03-02T07:22:48.510Z,14.71
2023-03-02T07:27:50.771Z,14.92
2023-03-02T07:32:52.861Z,14.94
2023-03-02T07:37:55.214Z,14.99
2023-03-02T07:42:57.632Z,14.79
2023-03-02T07:47:59.884Z,14.95
2023-03-02T07:53:02.053Z,14.89
2023-03-02T07:58:04.281Z,15.04
2023-03-02T08:03:06.441Z,15.07
2023-03-02T08:08:08.561Z,14.91
2023-03-02T08:13:10.791Z,14.90
2023-03-02T08:18:13.005Z,14.86
2023-03-02T08:23:15.176Z,14.99
2023-03-02T08:28:17.320Z,14.99
2023-03-02T08:33:19.430Z,14.95
2023-03-02T08:38:21.602Z,14.68
2023-03-02T08:43:25.843Z,14.90
2023-03-02T08:48:29.065Z,14.93
2023-03-02T08:53:33.650Z,14.97
2023-03-02T08:58:35.831Z,14.80
2023-03-02T09:03:38.017Z,14.76
2023-03-02T09:08:40.630Z,14.69
2023-03-02T09:13:42.822Z,14.89
2023-03-02T09:18:45.035Z,14.92
2023-03-02T09:23:47.266Z,14.66
2023-03-02T09:28:49.599Z,14.71
2023-03-02T09:33:51.901Z,14.61
2023-03-02T09:38:55.239Z,14.86
2023-03-02T09:44:33.480Z,14.78
2023-03-02T09:49:54.335Z,14.72
2023-03-02T09:55:01.142Z,14.61
2023-03-02T10:00:19.132Z,14.65
2023-03-02T10:05:29.839Z,14.78
2023-03-02T10:10:45.459Z,14.77
2023-03-02T10:15:59.383Z,14.75
2023-03-02T10:21:24.022Z,14.68
2023-03-02T10:26:39.987Z,14.64
2023-03-02T10:31:43.777Z,14.73
2023-03-02T10:36:48.073Z,14.73
2023-03-02T10:42:08.005Z,14.53
2023-03-02T10:47:24.166Z,14.67
2023-03-02T10:52:28.926Z,14.84
2023-03-02T10:57:37.323Z,14.96
2023-03-02T11:02:39.550Z,14.93
2023-03-02T11:07:55.918Z,15.04
2023-03-02T11:12:59.287Z,15.18
2023-03-02T11:18:10.340Z,15.25
2023-03-02T11:23:27.081Z,15.17
2023-03-02T11:28:53.050Z,15.31
2023-03-02T11:34:18.236Z,15.40
2023-03-02T11:39:26.549Z,15.45
2023-03-02T11:44:30.169Z,15.54
2023-03-02T11:49:56.436Z,15.72
2023-03-02T11:55:06.712Z,15.76
2023-03-02T12:00:30.086Z,15.80
2023-03-02T12:05:36.194Z,15.87
2023-03-02T12:10:43.912Z,15.92
2023-03-02T12:15:51.267Z,15.95
2023-03-02T12:21:07.142Z,16.05
2023-03-02T12:26:37.345Z,16.17
2023-03-02T12:31:42.625Z,16.18
2023-03-02T12:36:45.427Z,16.10
2023-03-02T12:42:25.837Z,15.82
2023-03-02T12:47:30.413Z,15.68
2023-03-02T12:52:35.770Z,15.51
2023-03-02T12:57:49.853Z,15.47
2023-03-02T13:02:57.332Z,15.29
2023-03-02T13:08:25.648Z,15.18
2023-03-02T13:13:51.634Z,15.09
2023-03-02T13:18:57.504Z,14.97
2023-03-02T13:24:00.563Z,15.03
2023-03-02T13:29:15.045Z,15.23
2023-03-02T13:34:28.895Z,15.18
2023-03-02T13:39:32.284Z,15.07
2023-03-02T13:44:36.127Z,15.16
2023-03-02T13:49:38.261Z,15.03
2023-03-02T13:54:44.482Z,15.06
2023-03-02T13:59:46.700Z,14.87
2023-03-02T14:04:48.920Z,14.72
2023-03-02T14:09:51.342Z,14.63
2023-03-02T14:14:58.537Z,14.63
2023-03-02T14:20:00.971Z,14.81
2023-03-02T14:25:03.191Z,14.46
2023-03-02T14:30:22.158Z,14.58
2023-03-02T14:35:26.014Z,14.47
2023-03-02T14:40:28.796Z,14.55
2023-03-02T14:45:31.144Z,14.54
2023-03-02T14:50:39.074Z,14.51
2023-03-02T14:55:42.582Z,14.63
2023-03-02T15:00:45.508Z,14.44
2023-03-02T15:06:00.212Z,14.43
2023-03-02T15:11:03.319Z,14.53
2023-03-02T15:16:05.708Z,14.57
2023-03-02T15:21:12.479Z,14.54
2023-03-02T15:26:14.900Z,14.50
2023-03-02T15:31:17.623Z,14.86
2023-03-02T15:36:20.769Z,14.81
2023-03-02T15:41:23.157Z,15.04
2023-03-02T15:46:26.115Z,15.01
2023-03-02T15:51:28.280Z,15.11
2023-03-02T15:56:42.343Z,15.06
2023-03-02T16:01:46.222Z,14.90
2023-03-02T16:06:48.657Z,14.84
2023-03-02T16:11:52.021Z,14.88
2023-03-02T16:16:54.402Z,14.94
2023-03-02T16:21:56.700Z,14.93
2023-03-02T16:26:58.906Z,14.94
2023-03-02T16:32:01.143Z,14.83
2023-03-02T16:37:04.402Z,14.80
2023-03-02T16:42:06.745Z,14.79
2023-03-02T16:47:08.974Z,14.90
2023-03-02T16:52:11.401Z,14.79
2023-03-02T16:57:13.483Z,14.57
2023-03-02T17:02:16.369Z,14.66
2023-03-02T17:07:19.562Z,14.64
2023-03-02T17:12:21.712Z,14.75
2023-03-02T17:17:24.001Z,14.67
2023-03-02T17:22:26.218Z,14.62
2023-03-02T17:27:28.371Z,14.55
2023-03-02T17:32:30.637Z,14.50
2023-03-02T17:37:34.459Z,14.52
2023-03-02T17:42:39.055Z,14.57
2023-03-02T17:47:41.390Z,14.35
2023-03-02T17:52:43.542Z,14.35
2023-03-02T17:57:45.794Z,14.24
2023-03-02T18:02:48.525Z,14.50
2023-03-02T18:07:52.544Z,14.39
2023-03-02T18:12:55.163Z,14.38
2023-03-02T18:17:58.273Z,14.35
2023-03-02T18:23:00.812Z,14.39
2023-03-02T18:28:03.128Z,14.34
2023-03-02T18:33:05.617Z,14.35
2023-03-02T18:38:08.203Z,14.30
2023-03-02T18:43:10.575Z,14.27
2023-03-02T18:48:13.322Z,14.14
2023-03-02T18:53:15.869Z,14.28
2023-03-02T18:58:20.752Z,14.18
2023-03-02T19:03:25.206Z,14.13
2023-03-02T19:08:28.202Z,14.08
2023-03-02T19:13:30.422Z,14.10
2023-03-02T19:18:33.577Z,14.14
2023-03-02T19:23:35.758Z,14.18
2023-03-02T19:28:41.299Z,14.22
2023-03-02T19:33:45.549Z,14.16
2023-03-02T19:38:48.219Z,14.17
2023-03-02T19:43:50.677Z,14.14
2023-03-02T19:48:53.166Z,14.21
2023-03-02T19:53:55.508Z,14.22
2023-03-02T19:58:58.290Z,14.21
2023-03-02T20:04:01.191Z,14.05
2023-03-02T20:09:06.801Z,14.24
2023-03-02T20:14:09.124Z,14.19
2023-03-02T20:19:14.230Z,14.26
2023-03-02T20:24:17.414Z,14.12
2023-03-02T20:29:19.970Z,14.13
2023-03-02T20:34:22.451Z,13.97
2023-03-02T20:39:31.874Z,14.02
2023-03-02T20:44:35.218Z,13.97
2023-03-02T20:49:39.125Z,13.82
2023-03-02T20:54:43.157Z,13.86
2023-03-02T20:59:47.087Z,13.80
2023-03-02T21:04:49.773Z,14.00
2023-03-02T21:09:52.091Z,13.98
2023-03-02T21:14:54.831Z,13.98
2023-03-02T21:19:58.088Z,13.85
2023-03-02T21:25:00.387Z,13.88
2023-03-02T21:30:06.434Z,13.94
2023-03-02T21:35:10.436Z,14.05
2023-03-02T21:40:30.779Z,13.90
2023-03-02T21:45:35.044Z,13.85
2023-03-02T21:50:38.780Z,13.78
2023-03-02T21:55:41.002Z,13.76
2023-03-02T22:00:43.307Z,13.69
2023-03-02T22:05:45.716Z,13.58
2023-03-02T22:10:50.128Z,13.39
2023-03-02T22:16:15.682Z,13.33
2023-03-02T22:21:26.956Z,13.42
2023-03-02T22:26:29.181Z,13.34
2023-03-02T22:31:31.622Z,13.41
2023-03-02T22:36:34.300Z,13.28
2023-03-02T22:41:36.439Z,13.40
2023-03-02T22:46:38.724Z,13.50
2023-03-02T22:51:41.545Z,13.38
2023-03-02T22:56:46.901Z,13.39
2023-03-02T23:01:49.587Z,13.22
2023-03-02T23:06:57.047Z,13.44
2023-03-02T23:12:03.021Z,13.36
2023-03-02T23:17:34.967Z,13.45
2023-03-02T23:22:39.342Z,13.26
2023-03-02T23:27:41.537Z,13.18
2023-03-02T23:32:44.824Z,13.25
2023-03-02T23:37:47.114Z,13.30
2023-03-02T23:42:50.313Z,13.20
2023-03-02T23:47:52.787Z,13.18
2023-03-02T23:52:54.970Z,13.14
2023-03-02T23:57:57.096Z,13.21
